createdAt,value
2022-11-28T00:02:21.312Z,98483.53
2022-11-28T00:04:51.254Z,98484.41
2022-11-28T00:07:18.186Z,98478.31
2022-11-28T00:09:44.739Z,98474.88
2022-11-28T00:12:11.288Z,98477.47
2022-11-28T00:14:37.890Z,98480.06
2022-11-28T00:17:04.448Z,98460.94
2022-11-28T00:19:31.147Z,98455.75
2022-11-28T00:21:57.741Z,98449.69
2022-11-28T00:24:24.340Z,98452.28
2022-11-28T00:26:50.905Z,98448.81
2022-11-28T00:29:17.551Z,98438.38
2022-11-28T00:31:44.335Z,98426.25
2022-11-28T00:34:13.555Z,98424.50
2022-11-28T00:36:40.305Z,98425.38
2022-11-28T00:39:07.223Z,98425.41
2022-11-28T00:41:35.367Z,98435.75
2022-11-28T00:44:01.952Z,98427.97
2022-11-28T00:46:28.985Z,98433.19
2022-11-28T00:48:55.609Z,98427.97
2022-11-28T00:51:25.006Z,98418.44
2022-11-28T00:53:53.647Z,98415.81
2022-11-28T00:56:23.546Z,98410.66
2022-11-28T00:58:50.521Z,98398.47
2022-11-28T01:01:20.060Z,98399.34
2022-11-28T01:03:47.516Z,98395.88
2022-11-28T01:06:27.395Z,98386.31
2022-11-28T01:08:54.146Z,98388.03
2022-11-28T01:11:21.938Z,98379.38
2022-11-28T01:13:48.869Z,98363.78
2022-11-28T01:16:15.774Z,98357.69
2022-11-28T01:18:42.696Z,98352.50
2022-11-28T01:21:09.280Z,98344.66
2022-11-28T01:23:36.202Z,98330.75
2022-11-28T01:26:06.566Z,98323.81
2022-11-28T01:28:34.400Z,98309.97
2022-11-28T01:31:09.300Z,98307.34
2022-11-28T01:33:36.025Z,98311.72
2022-11-28T01:36:03.480Z,98328.22
2022-11-28T01:38:30.062Z,98331.72
2022-11-28T01:40:56.985Z,98330.88
2022-11-28T01:43:24.366Z,98314.31
2022-11-28T01:45:52.060Z,98305.59
2022-11-28T01:48:25.051Z,98313.41
2022-11-28T01:50:55.622Z,98316.91
2022-11-28T01:53:22.973Z,98332.50
2022-11-28T01:55:56.023Z,98335.97
2022-11-28T01:58:23.574Z,98329.00
2022-11-28T02:00:50.238Z,98342.91
2022-11-28T02:03:26.585Z,98352.44
2022-11-28T02:05:53.854Z,98362.03
2022-11-28T02:08:20.477Z,98351.59
2022-11-28T02:11:07.871Z,98362.06
2022-11-28T02:14:01.029Z,98356.00
2022-11-28T02:16:27.529Z,98342.09
2022-11-28T02:19:33.851Z,98334.28
2022-11-28T02:22:09.353Z,98343.84
2022-11-28T02:25:00.150Z,98341.25
2022-11-28T02:27:42.016Z,98335.09
2022-11-28T02:30:16.617Z,98321.22
2022-11-28T02:33:12.883Z,98322.97
2022-11-28T02:36:13.147Z,98322.13
2022-11-28T02:38:50.674Z,98328.22
2022-11-28T02:41:29.947Z,98327.34
2022-11-28T02:44:08.475Z,98324.75
2022-11-28T02:46:42.918Z,98309.09
2022-11-28T02:49:19.722Z,98309.97
2022-11-28T02:51:57.268Z,98323.00
2022-11-28T02:54:26.627Z,98316.94
2022-11-28T02:56:55.206Z,98316.94
2022-11-28T02:59:37.126Z,98311.75
2022-11-28T03:02:25.979Z,98301.34
2022-11-28T03:05:16.145Z,98290.97
2022-11-28T03:08:01.234Z,98303.09
2022-11-28T03:10:49.133Z,98297.91
2022-11-28T03:13:40.375Z,98303.03
2022-11-28T03:16:17.888Z,98299.53
2022-11-28T03:19:05.229Z,98287.41
2022-11-28T03:21:47.478Z,98290.91
2022-11-28T03:24:46.769Z,98290.91
2022-11-28T03:27:21.172Z,98290.91
2022-11-28T03:29:53.031Z,98288.31
2022-11-28T03:32:25.522Z,98282.22
2022-11-28T03:34:58.245Z,98286.59
2022-11-28T03:37:29.354Z,98287.44
2022-11-28T03:40:00.869Z,98285.75
2022-11-28T03:42:31.250Z,98286.59
2022-11-28T03:45:13.239Z,98288.34
2022-11-28T03:47:44.633Z,98282.25
2022-11-28T03:50:16.967Z,98280.53
2022-11-28T03:53:18.656Z,98284.88
2022-11-28T03:56:02.343Z,98282.28
2022-11-28T03:58:43.800Z,98271.84
2022-11-28T04:01:21.253Z,98277.06
2022-11-28T04:03:59.503Z,98272.72
2022-11-28T04:06:30.718Z,98264.91
2022-11-28T04:09:18.149Z,98273.63
2022-11-28T04:11:49.687Z,98251.94
2022-11-28T04:14:32.649Z,98262.38
2022-11-28T04:17:08.068Z,98258.88
2022-11-28T04:19:43.876Z,98257.13
2022-11-28T04:22:18.339Z,98249.34
2022-11-28T04:24:58.688Z,98251.13
2022-11-28T04:27:31.991Z,98255.50
2022-11-28T04:30:01.489Z,98254.63
2022-11-28T04:32:30.844Z,98251.22
2022-11-28T04:35:03.203Z,98252.97
2022-11-28T04:37:32.619Z,98236.50
2022-11-28T04:40:01.180Z,98236.50
2022-11-28T04:42:33.696Z,98228.72
2022-11-28T04:45:07.081Z,98237.38
2022-11-28T04:47:33.659Z,98242.59
2022-11-28T04:50:00.536Z,98238.25
2022-11-28T04:52:39.239Z,98222.66
2022-11-28T04:55:17.019Z,98207.09
2022-11-28T04:57:47.082Z,98211.41
2022-11-28T05:00:16.868Z,98212.28
2022-11-28T05:02:45.621Z,98219.22
2022-11-28T05:05:16.585Z,98211.41
2022-11-28T05:07:43.366Z,98202.78
2022-11-28T05:10:23.135Z,98207.94
2022-11-28T05:12:49.716Z,98214.88
2022-11-28T05:15:19.286Z,98232.19
2022-11-28T05:17:46.912Z,98247.75
2022-11-28T05:20:14.449Z,98249.47
2022-11-28T05:22:41.035Z,98228.69
2022-11-28T05:25:07.804Z,98216.59
2022-11-28T05:27:34.257Z,98208.81
2022-11-28T05:30:00.806Z,98207.94
2022-11-28T05:32:30.598Z,98225.28
2022-11-28T05:34:57.704Z,98232.19
2022-11-28T05:37:25.309Z,98230.47
2022-11-28T05:39:52.097Z,98214.88
2022-11-28T05:42:18.755Z,98214.84
2022-11-28T05:44:45.234Z,98209.69
2022-11-28T05:47:11.815Z,98220.06
2022-11-28T05:49:38.279Z,98223.47
2022-11-28T05:52:04.949Z,98210.47
2022-11-28T05:54:31.653Z,98206.94
2022-11-28T05:56:58.425Z,98206.09
2022-11-28T05:59:25.001Z,98195.75
2022-11-28T06:01:51.580Z,98187.16
2022-11-28T06:04:18.207Z,98188.91
2022-11-28T06:06:45.183Z,98186.31
2022-11-28T06:09:11.720Z,98181.09
2022-11-28T06:11:38.456Z,98176.75
2022-11-28T06:14:04.990Z,98180.25
2022-11-28T06:16:31.861Z,98176.78
2022-11-28T06:19:00.822Z,98173.31
2022-11-28T06:21:28.924Z,98173.34
2022-11-28T06:23:57.032Z,98158.59
2022-11-28T06:26:24.833Z,98156.00
2022-11-28T06:28:51.775Z,98147.34
2022-11-28T06:31:29.876Z,98135.22
2022-11-28T06:33:57.911Z,98134.34
2022-11-28T06:36:26.183Z,98131.75
2022-11-28T06:38:53.235Z,98119.59
2022-11-28T06:41:20.615Z,98123.88
2022-11-28T06:43:47.169Z,98125.63
2022-11-28T06:46:21.528Z,98130.75
2022-11-28T06:48:50.579Z,98140.97
2022-11-28T06:51:18.156Z,98137.47
2022-11-28T06:53:44.706Z,98139.13
2022-11-28T06:56:16.908Z,98133.91
2022-11-28T06:58:44.783Z,98129.56
2022-11-28T07:01:13.081Z,98133.03
2022-11-28T07:03:40.551Z,98129.63
2022-11-28T07:06:08.301Z,98119.22
2022-11-28T07:08:35.913Z,98118.34
2022-11-28T07:11:13.110Z,98122.69
2022-11-28T07:13:41.121Z,98138.28
2022-11-28T07:16:08.735Z,98156.53
2022-11-28T07:18:35.385Z,98166.06
2022-11-28T07:21:02.349Z,98176.47
2022-11-28T07:23:28.898Z,98172.94
2022-11-28T07:26:02.797Z,98157.09
2022-11-28T07:28:31.733Z,98162.00
2022-11-28T07:31:04.505Z,98142.63
2022-11-28T07:33:31.227Z,98125.09
2022-11-28T07:36:02.635Z,98127.63
2022-11-28T07:38:29.255Z,98116.22
2022-11-28T07:40:55.966Z,98113.38
2022-11-28T07:43:22.493Z,98113.25
2022-11-28T07:46:00.653Z,98114.16
2022-11-28T07:48:27.980Z,98121.06
2022-11-28T07:50:54.598Z,98114.91
2022-11-28T07:53:21.124Z,98123.59
2022-11-28T07:55:47.675Z,98130.59
2022-11-28T07:58:14.160Z,98131.50
2022-11-28T08:00:40.987Z,98137.63
2022-11-28T08:03:07.594Z,98132.41
2022-11-28T08:05:37.356Z,98128.94
2022-11-28T08:08:04.184Z,98141.97
2022-11-28T08:10:30.748Z,98143.63
2022-11-28T08:12:57.336Z,98140.19
2022-11-28T08:15:23.858Z,98148.03
2022-11-28T08:17:50.373Z,98152.34
2022-11-28T08:20:16.945Z,98149.69
2022-11-28T08:22:43.488Z,98149.69
2022-11-28T08:25:09.939Z,98153.13
2022-11-28T08:27:36.568Z,98156.63
2022-11-28T08:30:06.166Z,98151.25
2022-11-28T08:32:32.775Z,98150.25
2022-11-28T08:34:59.245Z,98145.03
2022-11-28T08:37:26.582Z,98149.25
2022-11-28T08:39:53.092Z,98143.09
2022-11-28T08:42:19.754Z,98140.31
2022-11-28T08:44:46.190Z,98157.72
2022-11-28T08:47:12.721Z,98151.59
2022-11-28T08:49:39.477Z,98154.28
2022-11-28T08:52:06.336Z,98156.00
2022-11-28T08:54:33.144Z,98157.03
2022-11-28T08:57:01.326Z,98156.84
2022-11-28T08:59:28.319Z,98152.44
2022-11-28T09:01:55.471Z,98154.13
2022-11-28T09:04:23.822Z,98155.09
2022-11-28T09:06:50.944Z,98157.50
2022-11-28T09:09:17.522Z,98152.28
2022-11-28T09:11:44.627Z,98153.09
2022-11-28T09:14:11.525Z,98158.25
2022-11-28T09:16:39.684Z,98163.56
2022-11-28T09:19:09.147Z,98161.78
2022-11-28T09:21:35.870Z,98159.97
2022-11-28T09:24:02.473Z,98164.53
2022-11-28T09:26:30.141Z,98166.78
2022-11-28T09:28:57.069Z,98165.31
2022-11-28T09:31:30.451Z,98159.16
2022-11-28T09:33:57.458Z,98155.72
2022-11-28T09:36:26.251Z,98159.13
2022-11-28T09:38:52.835Z,98159.22
2022-11-28T09:41:38.697Z,98154.78
2022-11-28T09:44:11.789Z,98159.91
2022-11-28T09:46:40.228Z,98167.94
2022-11-28T09:49:22.658Z,98161.84
2022-11-28T09:51:58.096Z,98163.78
2022-11-28T09:54:56.627Z,98152.63
2022-11-28T09:57:37.338Z,98153.41
2022-11-28T10:00:06.194Z,98156.91
2022-11-28T10:02:44.099Z,98149.06
2022-11-28T10:05:34.006Z,98147.19
2022-11-28T10:08:20.411Z,98149.69
2022-11-28T10:10:49.506Z,98148.69
2022-11-28T10:14:07.243Z,98143.19
2022-11-28T10:16:33.775Z,98145.78
2022-11-28T10:19:12.501Z,98148.41
2022-11-28T10:21:53.934Z,98146.16
2022-11-28T10:24:52.255Z,98153.03
2022-11-28T10:37:51.494Z,98146.94
2022-11-28T10:40:25.259Z,98147.06
2022-11-28T10:43:06.396Z,98146.28
2022-11-28T10:45:42.033Z,98145.44
2022-11-28T10:48:44.032Z,98139.28
2022-11-28T10:51:23.146Z,98137.97
2022-11-28T10:54:46.463Z,98138.81
2022-11-28T10:57:31.563Z,98135.34
2022-11-28T11:00:12.388Z,98139.88
2022-11-28T11:02:49.832Z,98138.13
2022-11-28T11:05:22.210Z,98133.75
2022-11-28T11:08:09.539Z,98137.94
2022-11-28T11:10:45.483Z,98139.59
2022-11-28T11:13:16.937Z,98141.22
2022-11-28T11:15:46.034Z,98137.66
2022-11-28T11:18:25.448Z,98132.38
2022-11-28T11:21:06.288Z,98130.63
2022-11-28T11:23:38.059Z,98123.56
2022-11-28T11:26:10.288Z,98128.91
2022-11-28T11:28:47.902Z,98127.41
2022-11-28T11:31:23.828Z,98131.75
2022-11-28T11:33:53.998Z,98131.66
2022-11-28T11:36:25.100Z,98128.91
2022-11-28T11:38:52.375Z,98129.00
2022-11-28T11:41:31.034Z,98127.13
2022-11-28T11:44:34.786Z,98123.53
2022-11-28T11:47:05.324Z,98124.94
2022-11-28T11:49:36.154Z,98115.75
2022-11-28T11:52:15.084Z,98118.88
2022-11-28T11:54:57.165Z,98120.56
2022-11-28T11:57:33.255Z,98119.53
2022-11-28T12:00:04.926Z,98113.34
2022-11-28T12:02:37.986Z,98107.75
2022-11-28T12:05:12.602Z,98104.28
2022-11-28T12:07:52.917Z,98114.97
2022-11-28T12:10:23.980Z,98102.78
2022-11-28T12:12:50.757Z,98095.91
2022-11-28T12:15:22.988Z,98089.03
2022-11-28T12:17:59.101Z,98086.44
2022-11-28T12:20:51.637Z,98092.41
2022-11-28T12:23:27.169Z,98089.91
2022-11-28T12:25:56.695Z,98090.00
2022-11-28T12:28:51.180Z,98089.28
2022-11-28T12:31:36.537Z,98086.03
2022-11-28T12:34:34.345Z,98094.81
2022-11-28T12:37:29.476Z,98086.13
2022-11-28T12:40:37.956Z,98075.00
2022-11-28T12:43:17.269Z,98080.19
2022-11-28T12:45:59.312Z,98067.00
2022-11-28T12:48:36.807Z,98065.28
2022-11-28T12:51:18.514Z,98066.34
2022-11-28T12:54:04.927Z,98063.78
2022-11-28T12:56:52.502Z,98069.88
2022-11-28T12:59:46.262Z,98065.50
2022-11-28T13:02:38.513Z,98065.38
2022-11-28T13:05:24.230Z,98061.91
2022-11-28T13:08:12.727Z,98067.13
2022-11-28T13:10:39.332Z,98067.13
2022-11-28T13:13:15.101Z,98071.44
2022-11-28T13:16:22.083Z,98065.28
2022-11-28T13:19:12.066Z,98076.66
2022-11-28T13:21:51.620Z,98075.09
2022-11-28T13:25:01.053Z,98081.16
2022-11-28T13:27:32.447Z,98075.09
2022-11-28T13:30:13.415Z,98078.56
2022-11-28T13:32:39.929Z,98082.06
2022-11-28T13:35:13.054Z,98079.28
2022-11-28T13:40:53.179Z,98089.75
2022-11-28T13:43:39.528Z,98084.66
2022-11-28T13:46:09.293Z,98079.47
2022-11-28T13:51:32.913Z,98087.16
2022-11-28T13:54:18.312Z,98098.72
2022-11-28T13:57:05.390Z,98100.38
2022-11-28T13:59:33.129Z,98105.59
2022-11-28T14:02:16.865Z,98099.69
2022-11-28T14:04:44.945Z,98101.31
2022-11-28T14:07:25.586Z,98098.88
2022-11-28T14:09:55.267Z,98110.28
2022-11-28T14:12:53.657Z,98105.81
2022-11-28T14:15:28.797Z,98108.56
2022-11-28T14:18:39.315Z,98102.81
2022-11-28T14:21:09.972Z,98108.94
2022-11-28T14:23:49.222Z,98101.09
2022-11-28T14:26:24.921Z,98100.25
2022-11-28T14:28:51.975Z,98095.91
2022-11-28T14:31:33.141Z,98109.94
2022-11-28T14:34:02.765Z,98092.59
2022-11-28T14:36:36.082Z,98097.81
2022-11-28T14:39:19.635Z,98097.94
2022-11-28T14:45:40.760Z,98093.78
2022-11-28T14:48:17.921Z,98087.69
2022-11-28T14:50:53.493Z,98098.91
2022-11-28T14:53:44.810Z,98094.63
2022-11-28T14:56:28.427Z,98101.72
2022-11-28T14:59:05.813Z,98107.00
2022-11-28T15:01:48.261Z,98096.56
2022-11-28T15:04:23.097Z,98098.38
2022-11-28T15:07:25.606Z,98108.03
2022-11-28T15:10:11.577Z,98110.72
2022-11-28T15:12:53.422Z,98103.69
2022-11-28T15:15:20.691Z,98103.69
2022-11-28T15:17:53.842Z,98111.59
2022-11-28T15:20:28.297Z,98104.69
2022-11-28T15:22:55.000Z,98103.06
2022-11-28T15:25:25.079Z,98103.91
2022-11-28T15:27:52.633Z,98103.94
2022-11-28T15:30:26.772Z,98114.50
2022-11-28T15:33:00.558Z,98099.66
2022-11-28T15:35:28.441Z,98107.56
2022-11-28T15:37:58.097Z,98109.34
2022-11-28T15:40:36.728Z,98109.28
2022-11-28T15:43:11.096Z,98110.22
2022-11-28T15:45:42.373Z,98109.44
2022-11-28T15:48:38.751Z,98115.50
2022-11-28T15:51:07.317Z,98112.16
2022-11-28T15:53:33.967Z,98116.47
2022-11-28T15:56:15.058Z,98111.28
2022-11-28T15:58:43.713Z,98104.25
2022-11-28T16:01:16.119Z,98106.09
2022-11-28T16:04:07.329Z,98106.06
2022-11-28T16:06:37.521Z,98101.72
2022-11-28T16:09:17.678Z,98110.44
2022-11-28T16:11:51.409Z,98098.31
2022-11-28T16:14:24.065Z,98105.28
2022-11-28T16:16:50.899Z,98111.44
2022-11-28T16:19:25.329Z,98101.81
2022-11-28T16:22:17.106Z,98097.59
2022-11-28T16:24:51.090Z,98102.78
2022-11-28T16:27:34.219Z,98110.59
2022-11-28T16:30:02.372Z,98106.25
2022-11-28T16:32:37.294Z,98108.00
2022-11-28T16:35:05.056Z,98121.03
2022-11-28T16:37:33.166Z,98123.66
2022-11-28T16:40:12.049Z,98120.16
2022-11-28T16:42:39.069Z,98125.41
2022-11-28T16:45:18.903Z,98123.66
2022-11-28T16:47:52.443Z,98120.25
2022-11-28T16:50:24.272Z,98109.75
2022-11-28T16:52:54.417Z,98127.22
2022-11-28T16:55:30.016Z,98115.03
2022-11-28T16:58:11.051Z,98122.91
2022-11-28T17:00:40.722Z,98127.31
2022-11-28T17:03:12.702Z,98126.50
2022-11-28T17:05:39.578Z,98131.72
2022-11-28T17:08:08.177Z,98132.56
2022-11-28T17:10:34.839Z,98127.44
2022-11-28T17:13:01.434Z,98127.50
2022-11-28T17:15:27.997Z,98130.09
2022-11-28T17:17:55.854Z,98137.91
2022-11-28T17:20:22.437Z,98141.28
2022-11-28T17:22:51.169Z,98136.94
2022-11-28T17:25:20.463Z,98130.00
2022-11-28T17:27:48.359Z,98136.94
2022-11-28T17:30:19.666Z,98139.44
2022-11-28T17:32:52.015Z,98130.59
2022-11-28T17:35:23.931Z,98135.78
2022-11-28T17:37:50.673Z,98131.38
2022-11-28T17:40:36.762Z,98129.63
2022-11-28T17:43:03.832Z,98136.53
2022-11-28T17:45:35.470Z,98134.75
2022-11-28T17:48:02.235Z,98131.28
2022-11-28T17:50:28.769Z,98137.28
2022-11-28T17:52:58.567Z,98131.25
2022-11-28T17:55:25.355Z,98126.84
2022-11-28T17:57:52.431Z,98132.06
2022-11-28T18:00:19.272Z,98128.56
2022-11-28T18:02:45.822Z,98125.03
2022-11-28T18:05:12.469Z,98128.53
2022-11-28T18:07:39.163Z,98125.03
2022-11-28T18:10:06.511Z,98130.19
2022-11-28T18:12:33.645Z,98125.84
2022-11-28T18:15:01.160Z,98124.22
2022-11-28T18:17:27.861Z,98128.44
2022-11-28T18:19:57.488Z,98135.44
2022-11-28T18:22:24.642Z,98138.16
2022-11-28T18:24:51.409Z,98142.53
2022-11-28T18:27:18.202Z,98135.59
2022-11-28T18:29:45.166Z,98133.94
2022-11-28T18:32:12.063Z,98143.47
2022-11-28T18:34:38.728Z,98139.19
2022-11-28T18:37:05.476Z,98139.19
2022-11-28T18:39:33.290Z,98145.28
2022-11-28T18:42:00.231Z,98138.31
2022-11-28T18:44:26.898Z,98145.19
2022-11-28T18:46:53.493Z,98144.38
2022-11-28T18:49:20.451Z,98145.28
2022-11-28T18:51:47.120Z,98145.25
2022-11-28T18:54:20.607Z,98151.34
2022-11-28T18:56:48.037Z,98155.59
2022-11-28T18:59:14.733Z,98153.03
2022-11-28T19:01:41.353Z,98158.22
2022-11-28T19:04:11.668Z,98156.41
2022-11-28T19:06:39.908Z,98149.47
2022-11-28T19:09:09.561Z,98159.81
2022-11-28T19:11:36.670Z,98160.72
2022-11-28T19:14:03.626Z,98164.97
2022-11-28T19:16:32.551Z,98163.28
2022-11-28T19:19:00.479Z,98162.41
2022-11-28T19:21:31.040Z,98157.13
2022-11-28T19:23:58.404Z,98154.56
2022-11-28T19:26:26.779Z,98160.63
2022-11-28T19:28:53.613Z,98154.50
2022-11-28T19:31:23.005Z,98161.50
2022-11-28T19:34:01.538Z,98163.19
2022-11-28T19:36:30.532Z,98161.47
2022-11-28T19:38:58.123Z,98164.09
2022-11-28T19:41:25.303Z,98158.06
2022-11-28T19:43:51.856Z,98163.25
2022-11-28T19:46:19.323Z,98169.31
2022-11-28T19:48:46.148Z,98166.69
2022-11-28T19:51:13.518Z,98166.72
2022-11-28T19:53:42.495Z,98177.16
2022-11-28T19:56:13.258Z,98179.75
2022-11-28T19:58:40.333Z,98177.22
2022-11-28T20:01:18.455Z,98180.63
2022-11-28T20:03:47.695Z,98178.91
2022-11-28T20:06:19.247Z,98184.09
2022-11-28T20:08:47.100Z,98193.69
2022-11-28T20:11:22.523Z,98191.06
2022-11-28T20:13:49.803Z,98195.50
2022-11-28T20:16:17.802Z,98194.63
2022-11-28T20:18:45.137Z,98196.31
2022-11-28T20:21:14.186Z,98199.84
2022-11-28T20:23:45.264Z,98200.75
2022-11-28T20:26:12.710Z,98205.06
2022-11-28T20:28:40.984Z,98197.25
2022-11-28T20:31:18.508Z,98204.19
2022-11-28T20:33:45.147Z,98210.28
2022-11-28T20:36:16.674Z,98210.34
2022-11-28T20:38:43.621Z,98208.66
2022-11-28T20:41:12.223Z,98208.72
2022-11-28T20:43:40.084Z,98208.72
2022-11-28T20:46:09.526Z,98208.72
2022-11-28T20:48:36.724Z,98207.88
2022-11-28T20:51:06.994Z,98207.06
2022-11-28T20:53:35.087Z,98200.09
2022-11-28T20:56:03.742Z,98199.22
2022-11-28T20:58:31.210Z,98198.28
2022-11-28T21:00:58.097Z,98195.75
2022-11-28T21:03:25.878Z,98191.44
2022-11-28T21:05:57.938Z,98196.63
2022-11-28T21:08:30.474Z,98200.09
2022-11-28T21:10:57.426Z,98190.59
2022-11-28T21:13:24.080Z,98193.22
2022-11-28T21:15:51.149Z,98193.16
2022-11-28T21:18:17.882Z,98197.53
2022-11-28T21:20:46.175Z,98194.97
2022-11-28T21:23:14.730Z,98206.31
2022-11-28T21:25:43.368Z,98206.25
2022-11-28T21:28:10.590Z,98205.38
2022-11-28T21:30:43.172Z,98207.13
2022-11-28T21:33:11.556Z,98201.94
2022-11-28T21:35:39.524Z,98207.19
2022-11-28T21:38:07.103Z,98201.84
2022-11-28T21:40:33.872Z,98201.97
2022-11-28T21:43:00.529Z,98198.50
2022-11-28T21:45:27.288Z,98199.38
2022-11-28T21:47:54.041Z,98199.38
2022-11-28T21:50:20.805Z,98199.38
2022-11-28T21:52:47.338Z,98197.66
2022-11-28T21:55:13.984Z,98199.34
2022-11-28T21:57:42.351Z,98195.94
2022-11-28T22:00:20.793Z,98206.41
2022-11-28T22:03:02.869Z,98200.28
2022-11-28T22:05:31.416Z,98196.84
2022-11-28T22:07:58.257Z,98200.34
2022-11-28T22:10:24.937Z,98202.97
2022-11-28T22:12:51.599Z,98202.13
2022-11-28T22:15:18.169Z,98200.34
2022-11-28T22:17:44.807Z,98198.59
2022-11-28T22:20:11.925Z,98198.59
2022-11-28T22:22:38.506Z,98192.53
2022-11-28T22:25:05.479Z,98193.44
2022-11-28T22:27:33.136Z,98192.50
2022-11-28T22:29:59.737Z,98192.53
2022-11-28T22:32:26.292Z,98180.34
2022-11-28T22:34:52.916Z,98189.84
2022-11-28T22:37:19.587Z,98184.72
2022-11-28T22:39:46.210Z,98186.34
2022-11-28T22:42:12.772Z,98187.22
2022-11-28T22:44:39.327Z,98182.00
2022-11-28T22:47:05.978Z,98180.25
2022-11-28T22:49:32.499Z,98183.75
2022-11-28T22:51:59.060Z,98190.75
2022-11-28T22:54:25.655Z,98183.78
2022-11-28T22:56:53.100Z,98191.56
2022-11-28T22:59:19.814Z,98191.56
2022-11-28T23:01:46.424Z,98196.78
2022-11-28T23:04:13.007Z,98188.97
2022-11-28T23:06:39.630Z,98196.78
2022-11-28T23:09:07.908Z,98188.06
2022-11-28T23:11:37.837Z,98191.56
2022-11-28T23:14:05.203Z,98190.69
2022-11-28T23:16:37.392Z,98174.16
2022-11-28T23:19:06.588Z,98186.28
2022-11-28T23:21:37.403Z,98188.03
2022-11-28T23:24:05.266Z,98190.63
2022-11-28T23:26:32.548Z,98186.34
2022-11-28T23:29:01.021Z,98193.28
2022-11-28T23:31:30.629Z,98188.91
2022-11-28T23:33:58.164Z,98199.34
2022-11-28T23:36:27.145Z,98188.81
2022-11-28T23:38:59.013Z,98194.13
2022-11-28T23:41:26.292Z,98198.47
2022-11-28T23:43:52.921Z,98191.50
2022-11-28T23:46:21.054Z,98187.16
2022-11-28T23:48:48.122Z,98201.84
2022-11-28T23:51:16.134Z,98187.13
2022-11-28T23:53:43.188Z,98188.06
2022-11-28T23:56:15.373Z,98186.25
2022-11-28T23:58:42.494Z,98189.78
